Terminal Aerodrome Forecast
Issued by NWS

Home | Current Version | Previous Version | Text Only | Print | Product List | Glossary On
Versions: 1 2 3 4 5 6 7 8 9 10 11 12 13 14 15 16 17
000
FTUS46 KLOX 252352
TAFSBA
TAF
KSBA 252352Z 2600/2624 23008KT P6SM FEW045 SCT250
     FM260300 VRB03KT P6SM FEW015 SCT250
     FM260800 09004KT P6SM SCT010 SCT250
     FM261300 17005KT P6SM OVC015
     FM262100 24008KT P6SM SCT020 SCT045 SCT250=

USA.gov is the U.S. government's official web portal to all federal, state and local government web resources and services.